^^
Datos históricos de la estación: Murcia-Puente Tocinos
Diario Informe para Mayo 10, 2021 Unidades:  Métrico    Ingés   Ambas
Diario Semanal Mensual Anual
  Máxima: Mínima: Promedio:
Temperatura: 23.2 °C 18.3 °C 20.5 °C
Punto de rocio: 13.9 °C 8.9 °C 10.8 °C
Humedad: 75% 44.3% 54%
Velocidad viento: 14.8km/h 2.9km/h 7.7km/h
Racha viento: 27.8km/h - -
Viento- - SO
Presión: 1010.1 hPa 1006.9 hPa -
Precipitación: 0.0 mm    
 
 
Tabla de datos para Mayo 10, 2021
Hora Temperatura Punto de rocio Presión Viento Velocidad viento Racha viento Humedad Intensidad lluvia(por hora) Nubes
00:04 23.2 °C 10.6 °C 1006.9 hPa Oeste 10.3 km/h 24.1 km/h 45% 0.0 mm
00:09 23.2 °C 10.6 °C 1006.9 hPa Oeste 12.9 km/h 27.4 km/h 45% 0.0 mm
00:14 23.2 °C 10.6 °C 1006.9 hPa Oeste 14.8 km/h 27.8 km/h 45% 0.0 mm
00:19 23.1 °C 10.5 °C 1006.9 hPa ONO 14.3 km/h 15.6 km/h 45% 0.0 mm
00:24 23.1 °C 10.5 °C 1006.9 hPa Oeste 14 km/h 18.5 km/h 45% 0.0 mm
00:29 22.9 °C 10.4 °C 1007.1 hPa Oeste 11.7 km/h 19.3 km/h 45% 0.0 mm
00:34 22.9 °C 10.3 °C 1007.1 hPa ONO 10.3 km/h 16.7 km/h 45% 0.0 mm
00:39 22.8 °C 10.2 °C 1007.1 hPa ONO 10.1 km/h 18 km/h 45% 0.0 mm
00:44 22.7 °C 10.5 °C 1007.1 hPa ONO 10 km/h 19.3 km/h 45.9% 0.0 mm
00:49 22.7 °C 10.4 °C 1007.1 hPa ONO 9.7 km/h 19.3 km/h 46% 0.0 mm
00:54 22.6 °C 10.4 °C 1007.1 hPa ONO 9.5 km/h 22.2 km/h 46% 0.0 mm
00:59 22.6 °C 10.4 °C 1007.1 hPa ONO 11.7 km/h 20.9 km/h 46% 0.0 mm
01:04 22.6 °C 10.3 °C 1007.1 hPa ONO 13 km/h 20.9 km/h 46% 0.0 mm
01:09 22.4 °C 10.3 °C 1007.1 hPa ONO 11.9 km/h 20.9 km/h 46% 0.0 mm
01:14 22.4 °C 10.2 °C 1007.5 hPa ONO 11.1 km/h 19.8 km/h 46% 0.0 mm
01:19 22.3 °C 10.2 °C 1007.5 hPa ONO 11.6 km/h 20.9 km/h 46% 0.0 mm
01:24 22.3 °C 10.1 °C 1007.5 hPa ONO 11.9 km/h 20.9 km/h 46% 0.0 mm
01:29 22.2 °C 10 °C 1007.7 hPa ONO 11.9 km/h 22.5 km/h 46% 0.0 mm
01:34 22.2 °C 9.8 °C 1007.7 hPa ONO 11.9 km/h 24.1 km/h 45.4% 0.0 mm
01:39 22.1 °C 9.6 °C 1007.7 hPa ONO 11.4 km/h 24.1 km/h 45% 0.0 mm
01:44 22.1 °C 9.6 °C 1007.8 hPa ONO 11.1 km/h 22 km/h 45% 0.0 mm
01:49 22 °C 9.5 °C 1007.8 hPa ONO 11.1 km/h 22.5 km/h 45% 0.0 mm
01:54 21.9 °C 9.5 °C 1007.8 hPa ONO 11.1 km/h 22.5 km/h 45% 0.0 mm
01:59 21.9 °C 9.4 °C 1008.0 hPa Oeste 10.4 km/h 20.9 km/h 45% 0.0 mm
02:04 21.9 °C 9.7 °C 1008.0 hPa OSO 10 km/h 14.5 km/h 45.8% 0.0 mm
02:09 21.9 °C 9.8 °C 1008.0 hPa SO 7.8 km/h 14.5 km/h 46% 0.0 mm
02:14 21.8 °C 9.7 °C 1008.3 hPa SO 6.5 km/h 13 km/h 46% 0.0 mm
02:19 21.8 °C 9.7 °C 1008.3 hPa OSO 6.7 km/h 14 km/h 46% 0.0 mm
02:24 21.8 °C 9.7 °C 1008.3 hPa SO 6.9 km/h 16.7 km/h 46% 0.0 mm
02:29 21.8 °C 9.7 °C 1008.3 hPa OSO 8 km/h 16.1 km/h 46.1% 0.0 mm
02:34 21.8 °C 9.8 °C 1008.2 hPa OSO 8.7 km/h 14.8 km/h 46.4% 0.0 mm
02:39 21.8 °C 9.7 °C 1008.2 hPa SO 7.5 km/h 14.5 km/h 46% 0.0 mm
02:44 21.8 °C 9.7 °C 1008.2 hPa OSO 6.5 km/h 14.5 km/h 46% 0.0 mm
02:49 21.8 °C 9.7 °C 1008.0 hPa Oeste 5.6 km/h 8 km/h 46% 0.0 mm
02:54 21.8 °C 9.7 °C 1008.0 hPa OSO 5 km/h 13.7 km/h 46% 0.0 mm
02:59 21.8 °C 9.5 °C 1008.2 hPa SO 5.9 km/h 14.5 km/h 45.4% 0.0 mm
03:04 21.9 °C 9.4 °C 1008.2 hPa Oeste 6.5 km/h 10.3 km/h 45% 0.0 mm
03:09 21.9 °C 9.3 °C 1008.2 hPa Oeste 6.1 km/h 11.3 km/h 44.6% 0.0 mm
03:14 21.9 °C 9.4 °C 1008.2 hPa SO 5.8 km/h 14 km/h 44.9% 0.0 mm
03:19 21.8 °C 9.4 °C 1008.0 hPa SO 6.5 km/h 14.8 km/h 45% 0.0 mm
03:24 21.8 °C 9.1 °C 1008.0 hPa OSO 6.9 km/h 9.5 km/h 44.3% 0.0 mm
03:29 21.8 °C 9.3 °C 1008.0 hPa OSO 5.7 km/h 10 km/h 45% 0.0 mm
03:34 21.7 °C 9.3 °C 1007.7 hPa SO 5 km/h 9.7 km/h 45% 0.0 mm
03:39 21.7 °C 9.3 °C 1007.7 hPa Sur 5.5 km/h 9.7 km/h 45.3% 0.0 mm
03:44 21.7 °C 9.9 °C 1008.2 hPa SE 5.8 km/h 9.7 km/h 47.1% 0.0 mm
03:49 21.7 °C 10.3 °C 1008.2 hPa ESE 5.3 km/h 9.7 km/h 48.3% 0.0 mm
03:54 21.5 °C 10.4 °C 1008.2 hPa ESE 5 km/h 9.7 km/h 49.4% 0.0 mm
03:59 21.3 °C 10.5 °C 1008.2 hPa SE 4.8 km/h 8 km/h 50% 0.0 mm
04:04 21.3 °C 10.5 °C 1007.8 hPa ESE 4.6 km/h 8 km/h 50.4% 0.0 mm
04:09 21.2 °C 10.8 °C 1007.8 hPa ESE 3.7 km/h 8 km/h 51.6% 0.0 mm
04:14 21.2 °C 11 °C 1007.8 hPa NNE 2.9 km/h 10 km/h 52.2% 0.0 mm
04:19 21 °C 11.2 °C 1007.7 hPa NNO 2.9 km/h 9.7 km/h 53.5% 0.0 mm
04:24 20.8 °C 11 °C 1007.7 hPa NNO 2.9 km/h 9.3 km/h 53.2% 0.0 mm
04:29 20.7 °C 10.2 °C 1008.1 hPa ONO 4.1 km/h 11.9 km/h 50.8% 0.0 mm
04:34 20.6 °C 9.4 °C 1008.1 hPa ONO 5 km/h 16.7 km/h 48.8% 0.0 mm
04:39 20.7 °C 9.1 °C 1008.1 hPa ONO 7.7 km/h 19 km/h 47.5% 0.0 mm
04:44 20.7 °C 9.2 °C 1008.1 hPa Oeste 9.5 km/h 19.3 km/h 47.8% 0.0 mm
04:49 20.6 °C 9.2 °C 1008.1 hPa Oeste 10.4 km/h 18.5 km/h 48% 0.0 mm
04:54 20.6 °C 9.4 °C 1008.1 hPa OSO 11.1 km/h 19.3 km/h 48.5% 0.0 mm
04:59 20.4 °C 9.6 °C 1008.3 hPa Oeste 10.1 km/h 16.7 km/h 49.7% 0.0 mm
05:04 20.3 °C 9.6 °C 1008.3 hPa Oeste 9.5 km/h 16.1 km/h 50% 0.0 mm
05:09 20.2 °C 9.5 °C 1008.3 hPa OSO 9 km/h 14.8 km/h 50.1% 0.0 mm
05:14 20.1 °C 9.4 °C 1008.3 hPa OSO 8.7 km/h 14.5 km/h 50% 0.0 mm
05:19 20.1 °C 9.1 °C 1008.3 hPa OSO 7.6 km/h 14.8 km/h 49% 0.0 mm
05:24 20.1 °C 9.1 °C 1008.3 hPa SO 6.9 km/h 14.8 km/h 49% 0.0 mm
05:29 20.1 °C 9.1 °C 1008.6 hPa SO 8.7 km/h 18.5 km/h 49% 0.0 mm
05:34 20.1 °C 8.9 °C 1008.6 hPa OSO 10 km/h 19.3 km/h 48.5% 0.0 mm
05:39 20.2 °C 9.1 °C 1008.6 hPa Oeste 8.5 km/h 14.5 km/h 48.9% 0.0 mm
05:44 20.1 °C 9.1 °C 1008.6 hPa OSO 7.6 km/h 13.7 km/h 49.2% 0.0 mm
05:49 19.9 °C 9.2 °C 1008.2 hPa OSO 7.6 km/h 14.5 km/h 50% 0.0 mm
05:54 19.9 °C 9.2 °C 1008.2 hPa Sur 7.6 km/h 12.9 km/h 50% 0.0 mm
05:59 19.9 °C 9.2 °C 1008.6 hPa SSE 6.5 km/h 9.7 km/h 50.2% 0.0 mm
06:04 19.9 °C 9.4 °C 1008.6 hPa SE 5.8 km/h 9.7 km/h 50.9% 0.0 mm
06:09 19.9 °C 9.6 °C 1008.6 hPa SSE 5.3 km/h 8 km/h 51.6% 0.0 mm
06:14 19.9 °C 9.8 °C 1008.6 hPa Sur 5 km/h 9.3 km/h 52.3% 0.0 mm
06:19 19.7 °C 10 °C 1008.5 hPa SO 5 km/h 10 km/h 53.4% 0.0 mm
06:24 19.7 °C 10.2 °C 1008.5 hPa SO 5 km/h 9.7 km/h 54.3% 0.0 mm
06:29 19.6 °C 9.7 °C 1008.8 hPa SO 4.3 km/h 9.7 km/h 52.7% 0.0 mm
06:34 19.6 °C 9.6 °C 1008.8 hPa Sur 3.9 km/h 11.1 km/h 52.4% 0.0 mm
06:39 19.6 °C 10 °C 1008.8 hPa SSE 5.1 km/h 11.3 km/h 53.7% 0.0 mm
06:44 19.6 °C 10.3 °C 1008.9 hPa SSE 5.8 km/h 11.9 km/h 54.9% 0.0 mm
06:49 19.5 °C 10.7 °C 1008.9 hPa SSE 6.8 km/h 13 km/h 56.8% 0.0 mm
06:54 19.3 °C 10.9 °C 1008.9 hPa Sur 7.6 km/h 13 km/h 58.6% 0.0 mm
06:59 19.1 °C 11.2 °C 1009.1 hPa Sur 7.6 km/h 12.9 km/h 60.2% 0.0 mm
07:04 19 °C 11.6 °C 1009.1 hPa Sur 7.6 km/h 12.2 km/h 62.4% 0.0 mm
07:09 18.9 °C 12.1 °C 1009.1 hPa SSE 7.2 km/h 13 km/h 64.6% 0.0 mm
07:14 18.9 °C 12.5 °C 1009.1 hPa SSE 6.9 km/h 11.3 km/h 66.3% 0.0 mm
07:19 18.9 °C 12.7 °C 1009.1 hPa SE 6.9 km/h 11.3 km/h 67% 0.0 mm
07:24 19 °C 12.9 °C 1009.1 hPa SE 6.9 km/h 9.7 km/h 67.9% 0.0 mm
07:29 19 °C 12.9 °C 1009.3 hPa SSE 5.7 km/h 9.7 km/h 68% 0.0 mm
07:34 18.9 °C 12.9 °C 1009.3 hPa SSE 5 km/h 9.7 km/h 68.2% 0.0 mm
07:39 18.9 °C 13.1 °C 1009.3 hPa SSE 5 km/h 9.7 km/h 69% 0.0 mm
07:44 19 °C 13.2 °C 1009.6 hPa NNO 5 km/h 10.3 km/h 69% 0.0 mm
07:49 18.8 °C 13.1 °C 1009.6 hPa ENE 4.8 km/h 11.3 km/h 69% 0.0 mm
07:54 18.8 °C 13.1 °C 1009.6 hPa ESE 4.7 km/h 11.3 km/h 69.7% 0.0 mm
07:59 18.8 °C 13.2 °C 1009.7 hPa ESE 4.9 km/h 8 km/h 70% 0.0 mm
08:04 18.8 °C 13.3 °C 1009.7 hPa Este 5 km/h 8.4 km/h 70.1% 0.0 mm
08:09 18.7 °C 13.4 °C 1009.7 hPa ESE 4.8 km/h 11.1 km/h 71.3% 0.0 mm
08:14 18.6 °C 13.6 °C 1009.7 hPa ESE 4.7 km/h 11.9 km/h 72.8% 0.0 mm
08:19 18.5 °C 13.5 °C 1009.4 hPa SSE 6.3 km/h 13 km/h 72.6% 0.0 mm
08:24 18.5 °C 13.5 °C 1009.4 hPa Sur 7.6 km/h 12.9 km/h 72.8% 0.0 mm
08:29 18.5 °C 13.6 °C 1009.5 hPa SSE 6.9 km/h 11.9 km/h 73% 0.0 mm
08:34 18.5 °C 13.5 °C 1009.5 hPa SSE 6.5 km/h 11.3 km/h 73% 0.0 mm
08:39 18.4 °C 13.4 °C 1009.5 hPa SSE 6.5 km/h 11.3 km/h 73% 0.0 mm
08:44 18.4 °C 13.6 °C 1009.5 hPa Sur 6.5 km/h 11.3 km/h 73.7% 0.0 mm
08:49 18.3 °C 13.6 °C 1009.4 hPa Sur 6.1 km/h 9.5 km/h 74% 0.0 mm
08:54 18.3 °C 13.7 °C 1009.4 hPa Sur 5.8 km/h 11.9 km/h 74.4% 0.0 mm
08:59 18.4 °C 13.9 °C 1010.1 hPa Sur 6.9 km/h 16.7 km/h 75% 0.0 mm
09:04 18.4 °C 13.8 °C 1010.1 hPa SSO 7.6 km/h 16.1 km/h 74.4% 0.0 mm
09:09 18.5 °C 13.6 °C 1010.1 hPa SSO 8.2 km/h 14.5 km/h 73.3% 0.0 mm
09:14 18.4 °C 13.1 °C 1010.1 hPa SSO 8.7 km/h 13 km/h 71.1% 0.0 mm
09:19 18.4 °C 12.7 °C 1009.9 hPa SSO 7.3 km/h 12.9 km/h 69.2% 0.0 mm
09:24 18.5 °C 12 °C 1009.9 hPa SSO 6.5 km/h 13 km/h 65.8% 0.0 mm
09:29 18.8 °C 11.7 °C 1009.9 hPa Sur 7.6 km/h 14.8 km/h 63.6% 0.0 mm
09:34 19.1 °C 11.4 °C 1009.9 hPa SSO 8.4 km/h 18.5 km/h 61.1% 0.0 mm
09:39 19.1 °C 11.4 °C 1009.9 hPa Sur 10.2 km/h 19.3 km/h 61% 0.0 mm
09:44 19.1 °C 11.4 °C 1010.1 hPa SSO 11.1 km/h 16.1 km/h 61% 0.0 mm
09:49 19.2 °C 11.5 °C 1010.1 hPa SSO 9.5 km/h 14.8 km/h 61% 0.0 mm
09:54 19.5 °C 11.6 °C 1010.1 hPa SSO 8.4 km/h 14.5 km/h 60.2% 0.0 mm
09:59 19.8 °C 11.6 °C 1010.1 hPa SO 8.6 km/h 14.8 km/h 59.2% 0.0 mm
10:04 19.9 °C 11.4 °C 1010.0 hPa OSO 8.7 km/h 14.8 km/h 58% 0.0 mm
10:09 19.9 °C 11.5 °C 1010.0 hPa SO 8.5 km/h 14.5 km/h 58.4% 0.0 mm
10:14 20.1 °C 11.6 °C 1010.0 hPa SO 8.4 km/h 15.6 km/h 58.2% 0.0 mm
10:19 20.2 °C 11.4 °C 1009.8 hPa SSO 7.9 km/h 16.1 km/h 57.1% 0.0 mm
10:24 20.1 °C 11.5 °C 1009.8 hPa Sur 7.6 km/h 14.5 km/h 58% 0.0 mm
10:25 20.1 °C 11.6 °C 1009.8 hPa SSO 8 km/h 11.3 km/h 58% 0.0 mm
Murcia-Puente Tocinos, España
Compliments of Weather Underground - 2 mb

La estación de MeteoMurcia.com, publica sus datos en los siguientes proyectos:

Weather Underground PWS IMURCIAP2 Meteoclimatic www.awekas.at

W3Counter
Web Analytics